createdAt,value
2022-08-26T00:01:53.976Z,22.21
2022-08-26T00:04:23.613Z,22.05
2022-08-26T00:06:51.507Z,22.15
2022-08-26T00:09:18.622Z,22.17
2022-08-26T00:11:45.918Z,22.17
2022-08-26T00:14:14.162Z,22.17
2022-08-26T00:16:47.929Z,22.20
2022-08-26T00:19:20.620Z,22.26
2022-08-26T00:21:49.759Z,22.26
2022-08-26T00:24:19.214Z,22.26
2022-08-26T00:26:46.845Z,22.24
2022-08-26T00:29:13.898Z,22.24
2022-08-26T00:31:42.624Z,22.31
2022-08-26T00:34:12.606Z,22.35
2022-08-26T00:36:41.009Z,22.25
2022-08-26T00:39:09.063Z,22.29
2022-08-26T00:41:40.528Z,22.41
2022-08-26T00:44:10.995Z,22.42
2022-08-26T00:46:55.767Z,22.34
2022-08-26T00:49:34.922Z,22.27
2022-08-26T00:52:05.822Z,22.16
2022-08-26T00:54:46.763Z,22.08
2022-08-26T00:57:17.912Z,22.04
2022-08-26T00:59:54.333Z,21.88
2022-08-26T01:02:21.811Z,21.78
2022-08-26T01:04:57.959Z,21.77
2022-08-26T01:07:31.281Z,21.67
2022-08-26T01:10:01.384Z,21.69
2022-08-26T01:12:32.309Z,21.76
2022-08-26T01:14:59.849Z,21.80
2022-08-26T01:17:26.716Z,21.84
2022-08-26T01:20:04.836Z,21.80
2022-08-26T01:22:56.625Z,21.66
2022-08-26T01:25:26.762Z,21.68
2022-08-26T01:27:57.705Z,21.64
2022-08-26T01:30:29.409Z,21.67
2022-08-26T01:32:59.726Z,21.68
2022-08-26T01:35:28.001Z,21.56
2022-08-26T01:37:56.584Z,21.61
2022-08-26T01:40:31.954Z,21.48
2022-08-26T01:43:02.137Z,21.51
2022-08-26T01:45:33.750Z,21.47
2022-08-26T01:48:05.044Z,21.55
2022-08-26T01:50:35.169Z,21.58
2022-08-26T01:53:07.706Z,21.62
2022-08-26T01:55:39.702Z,21.62
2022-08-26T01:58:17.552Z,21.58
2022-08-26T02:00:46.526Z,21.57
2022-08-26T02:03:21.523Z,21.57
2022-08-26T02:06:00.132Z,21.64
2022-08-26T02:08:37.287Z,21.57
2022-08-26T02:11:05.016Z,21.56
2022-08-26T02:13:35.989Z,21.58
2022-08-26T02:16:03.891Z,21.53
2022-08-26T02:18:36.955Z,21.51
2022-08-26T02:21:06.634Z,21.35
2022-08-26T02:23:33.914Z,21.26
2022-08-26T02:26:14.360Z,21.24
2022-08-26T02:29:31.614Z,21.12
2022-08-26T02:31:59.097Z,21.04
2022-08-26T02:34:32.193Z,20.99
2022-08-26T02:37:03.420Z,21.00
2022-08-26T02:39:31.709Z,21.03
2022-08-26T02:41:59.201Z,21.01
2022-08-26T02:44:27.258Z,21.04
2022-08-26T02:46:54.993Z,21.08
2022-08-26T02:49:23.691Z,21.00
2022-08-26T02:51:51.995Z,21.09
2022-08-26T02:54:21.508Z,21.09
2022-08-26T02:56:49.088Z,21.11
2022-08-26T02:59:16.056Z,21.02
2022-08-26T03:01:45.012Z,21.05
2022-08-26T03:04:13.100Z,21.12
2022-08-26T03:06:41.542Z,20.97
2022-08-26T03:09:09.762Z,20.94
2022-08-26T03:11:37.604Z,20.88
2022-08-26T03:14:05.017Z,20.90
2022-08-26T03:16:35.277Z,20.95
2022-08-26T03:19:05.389Z,20.96
2022-08-26T03:21:33.982Z,20.96
2022-08-26T03:24:03.724Z,20.93
2022-08-26T03:26:31.129Z,20.91
2022-08-26T03:29:16.660Z,20.94
2022-08-26T03:31:43.619Z,20.84
2022-08-26T03:34:14.144Z,21.04
2022-08-26T03:36:42.056Z,20.99
2022-08-26T03:39:11.093Z,20.74
2022-08-26T03:41:38.694Z,20.70
2022-08-26T03:44:08.777Z,20.59
2022-08-26T03:46:36.691Z,20.58
2022-08-26T03:49:07.683Z,20.96
2022-08-26T03:51:38.716Z,21.04
2022-08-26T03:54:08.320Z,20.83
2022-08-26T03:56:36.554Z,20.81
2022-08-26T03:59:04.299Z,20.77
2022-08-26T04:01:31.828Z,20.75
2022-08-26T04:04:00.045Z,20.77
2022-08-26T04:06:38.651Z,20.81
2022-08-26T04:09:20.900Z,20.81
2022-08-26T04:11:50.331Z,20.84
2022-08-26T04:14:23.602Z,20.85
2022-08-26T04:16:52.512Z,20.88
2022-08-26T04:19:20.642Z,20.90
2022-08-26T04:21:51.918Z,20.89
2022-08-26T04:24:22.184Z,20.86
2022-08-26T04:26:49.163Z,20.89
2022-08-26T04:29:21.488Z,20.82
2022-08-26T04:31:48.645Z,20.84
2022-08-26T04:34:17.181Z,20.69
2022-08-26T04:36:45.099Z,20.65
2022-08-26T04:39:14.880Z,20.60
2022-08-26T04:41:41.738Z,20.55
2022-08-26T04:44:08.626Z,20.55
2022-08-26T04:46:36.443Z,20.50
2022-08-26T04:49:11.277Z,20.49
2022-08-26T04:51:39.282Z,20.57
2022-08-26T04:54:07.406Z,20.64
2022-08-26T04:56:40.067Z,20.81
2022-08-26T04:59:16.509Z,20.91
2022-08-26T05:01:52.858Z,20.97
2022-08-26T05:04:20.909Z,20.99
2022-08-26T05:06:49.272Z,21.00
2022-08-26T05:09:18.519Z,21.10
2022-08-26T05:11:48.414Z,21.17
2022-08-26T05:14:20.273Z,21.25
2022-08-26T05:16:47.985Z,21.39
2022-08-26T05:19:18.927Z,21.54
2022-08-26T05:21:47.699Z,21.55
2022-08-26T05:24:15.498Z,21.67
2022-08-26T05:26:44.620Z,21.72
2022-08-26T05:29:12.316Z,21.77
2022-08-26T05:31:39.190Z,21.81
2022-08-26T05:34:06.146Z,21.95
2022-08-26T05:36:35.522Z,22.15
2022-08-26T05:39:04.564Z,22.31
2022-08-26T05:41:38.305Z,22.49
2022-08-26T05:44:11.070Z,22.65
2022-08-26T05:46:40.259Z,22.74
2022-08-26T05:49:12.646Z,22.89
2022-08-26T05:51:41.812Z,22.95
2022-08-26T05:54:10.573Z,23.10
2022-08-26T05:56:39.188Z,23.19
2022-08-26T05:59:08.107Z,23.40
2022-08-26T06:01:42.798Z,23.56
2022-08-26T06:04:10.589Z,23.55
2022-08-26T06:06:41.221Z,23.61
2022-08-26T06:09:11.189Z,23.82
2022-08-26T06:11:39.159Z,23.80
2022-08-26T06:14:07.873Z,23.92
2022-08-26T06:16:38.736Z,24.05
2022-08-26T06:19:11.484Z,24.15
2022-08-26T06:21:41.834Z,24.23
2022-08-26T06:24:32.786Z,24.35
2022-08-26T06:27:08.251Z,24.37
2022-08-26T06:29:36.261Z,24.42
2022-08-26T06:32:05.391Z,24.58
2022-08-26T06:34:32.796Z,24.54
2022-08-26T06:37:06.420Z,24.53
2022-08-26T06:39:33.549Z,24.44
2022-08-26T06:42:02.686Z,24.35
2022-08-26T06:44:30.544Z,24.27
2022-08-26T06:46:59.191Z,24.41
2022-08-26T06:49:27.322Z,24.59
2022-08-26T06:51:58.842Z,24.69
2022-08-26T06:54:27.511Z,25.00
2022-08-26T06:56:56.801Z,25.21
2022-08-26T06:59:24.198Z,25.47
2022-08-26T07:01:52.225Z,25.59
2022-08-26T07:04:21.864Z,25.68
2022-08-26T07:06:52.399Z,25.75
2022-08-26T07:09:23.133Z,25.93
2022-08-26T07:11:51.798Z,26.39
2022-08-26T07:14:21.698Z,26.56
2022-08-26T07:16:50.013Z,26.44
2022-08-26T07:19:29.861Z,26.62
2022-08-26T07:22:04.447Z,26.69
2022-08-26T07:24:40.207Z,26.90
2022-08-26T07:27:14.025Z,27.01
2022-08-26T07:29:43.372Z,27.13
2022-08-26T07:32:13.637Z,27.30
2022-08-26T07:34:41.805Z,27.02
2022-08-26T07:37:09.073Z,26.97
2022-08-26T07:39:36.157Z,27.05
2022-08-26T07:42:08.049Z,26.81
2022-08-26T07:44:37.215Z,27.13
2022-08-26T07:47:04.240Z,27.41
2022-08-26T07:49:46.248Z,26.86
2022-08-26T07:52:14.828Z,27.53
2022-08-26T07:54:41.742Z,27.14
2022-08-26T07:57:09.401Z,26.85
2022-08-26T07:59:37.078Z,26.96
2022-08-26T08:02:04.768Z,27.86
2022-08-26T08:04:31.641Z,28.62
2022-08-26T08:06:58.559Z,28.97
2022-08-26T08:09:26.053Z,29.75
2022-08-26T08:11:54.263Z,30.33
2022-08-26T08:14:22.235Z,30.40
2022-08-26T08:16:51.287Z,30.47
2022-08-26T08:19:23.875Z,30.21
2022-08-26T08:21:51.920Z,30.36
2022-08-26T08:24:19.172Z,30.52
2022-08-26T08:26:46.173Z,30.76
2022-08-26T08:29:13.196Z,30.87
2022-08-26T08:31:58.301Z,30.81
2022-08-26T08:34:28.869Z,30.59
2022-08-26T08:36:57.577Z,30.60
2022-08-26T08:39:25.514Z,30.68
2022-08-26T08:42:33.473Z,29.76
2022-08-26T08:45:09.553Z,29.98
2022-08-26T08:47:45.101Z,30.09
2022-08-26T08:50:53.973Z,29.86
2022-08-26T08:53:34.676Z,30.06
2022-08-26T08:56:29.235Z,30.43
2022-08-26T08:59:24.221Z,30.45
2022-08-26T09:02:22.350Z,30.73
2022-08-26T09:05:16.932Z,30.52
2022-08-26T09:08:02.578Z,30.91
2022-08-26T09:10:53.907Z,31.32
2022-08-26T09:13:26.206Z,31.94
2022-08-26T09:16:07.483Z,32.02
2022-08-26T09:19:20.409Z,31.45
2022-08-26T09:21:59.641Z,32.28
2022-08-26T09:24:29.965Z,30.70
2022-08-26T09:26:59.069Z,30.74
2022-08-26T09:29:28.921Z,30.79
2022-08-26T09:32:24.337Z,31.98
2022-08-26T09:35:07.735Z,31.56
2022-08-26T09:37:40.459Z,31.99
2022-08-26T09:40:27.018Z,32.52
2022-08-26T09:43:13.426Z,32.81
2022-08-26T09:45:50.815Z,32.20
2022-08-26T09:48:36.876Z,30.94
2022-08-26T09:51:28.637Z,32.51
2022-08-26T09:53:59.693Z,33.13
2022-08-26T09:56:38.312Z,32.73
2022-08-26T09:59:11.447Z,33.25
2022-08-26T10:01:44.707Z,32.73
2022-08-26T10:04:19.770Z,32.47
2022-08-26T10:07:08.142Z,33.29
2022-08-26T10:09:41.945Z,32.36
2022-08-26T10:12:17.314Z,33.24
2022-08-26T10:14:52.917Z,31.40
2022-08-26T10:17:34.353Z,31.73
2022-08-26T10:20:05.870Z,32.37
2022-08-26T10:23:12.867Z,32.86
2022-08-26T10:26:05.776Z,33.46
2022-08-26T10:28:45.847Z,34.26
2022-08-26T10:31:29.221Z,34.09
2022-08-26T10:34:00.081Z,33.88
2022-08-26T10:37:15.854Z,34.30
2022-08-26T10:39:49.163Z,34.27
2022-08-26T10:42:21.371Z,34.27
2022-08-26T10:44:53.045Z,34.32
2022-08-26T10:47:33.283Z,34.50
2022-08-26T10:50:03.391Z,33.69
2022-08-26T10:53:00.241Z,32.09
2022-08-26T10:55:43.504Z,33.12
2022-08-26T10:58:42.635Z,33.56
2022-08-26T11:01:43.046Z,32.25
2022-08-26T11:04:44.411Z,32.30
2022-08-26T11:07:33.368Z,32.84
2022-08-26T11:10:02.832Z,32.95
2022-08-26T11:12:38.212Z,33.20
2022-08-26T11:15:30.878Z,33.48
2022-08-26T11:18:05.516Z,34.36
2022-08-26T11:20:44.811Z,33.20
2022-08-26T11:23:12.692Z,34.32
2022-08-26T11:25:58.891Z,32.83
2022-08-26T11:28:50.790Z,33.87
2022-08-26T11:31:18.925Z,34.13
2022-08-26T11:33:48.758Z,33.71
2022-08-26T11:36:56.891Z,33.18
2022-08-26T11:39:52.643Z,33.68
2022-08-26T11:42:42.716Z,32.57
2022-08-26T11:45:38.932Z,31.45
2022-08-26T11:48:19.280Z,32.17
2022-08-26T11:51:08.564Z,32.22
2022-08-26T11:53:42.589Z,33.07
2022-08-26T11:56:33.168Z,32.88
2022-08-26T11:59:03.418Z,33.28
2022-08-26T12:01:36.590Z,33.78
2022-08-26T12:04:07.743Z,33.75
2022-08-26T12:06:45.851Z,33.64
2022-08-26T12:09:27.401Z,33.87
2022-08-26T12:12:17.786Z,33.51
2022-08-26T12:14:45.338Z,33.60
2022-08-26T12:17:17.609Z,33.71
2022-08-26T12:19:46.469Z,33.78
2022-08-26T12:22:38.729Z,34.95
2022-08-26T12:25:11.256Z,35.17
2022-08-26T12:27:42.760Z,35.48
2022-08-26T12:30:19.990Z,35.37
2022-08-26T12:33:22.445Z,35.32
2022-08-26T12:35:56.209Z,34.82
2022-08-26T12:38:26.075Z,35.30
2022-08-26T12:40:53.237Z,35.57
2022-08-26T12:43:45.028Z,35.54
2022-08-26T12:46:17.021Z,36.37
2022-08-26T12:48:49.007Z,37.07
2022-08-26T12:51:35.261Z,36.94
2022-08-26T12:54:06.646Z,35.52
2022-08-26T12:56:39.425Z,35.22
2022-08-26T12:59:25.085Z,35.87
2022-08-26T13:01:53.439Z,34.81
2022-08-26T13:04:41.387Z,35.53
2022-08-26T13:07:23.265Z,36.80
2022-08-26T13:09:53.464Z,38.03
2022-08-26T13:12:29.426Z,38.47
2022-08-26T13:14:58.728Z,38.64
2022-08-26T13:17:27.605Z,39.75
2022-08-26T13:19:54.600Z,40.11
2022-08-26T13:22:24.320Z,40.15
2022-08-26T13:24:56.185Z,39.47
2022-08-26T13:27:26.162Z,40.41
2022-08-26T13:29:54.905Z,40.88
2022-08-26T13:32:23.786Z,42.10
2022-08-26T13:34:56.475Z,42.28
2022-08-26T13:37:24.330Z,41.01
2022-08-26T13:40:07.492Z,41.11
2022-08-26T13:42:34.708Z,41.67
2022-08-26T13:45:02.041Z,41.72
2022-08-26T13:47:28.924Z,41.79
2022-08-26T13:49:56.323Z,41.58
2022-08-26T13:52:30.102Z,40.07
2022-08-26T13:55:00.092Z,37.95
2022-08-26T13:57:28.432Z,37.37
2022-08-26T13:59:57.067Z,36.74
2022-08-26T14:02:24.100Z,35.72
2022-08-26T14:04:51.664Z,35.09
2022-08-26T14:07:18.557Z,34.42
2022-08-26T14:09:45.491Z,34.41
2022-08-26T14:12:12.340Z,33.87
2022-08-26T14:14:39.186Z,33.79
2022-08-26T14:17:06.973Z,33.42
2022-08-26T14:19:33.838Z,33.59
2022-08-26T14:22:01.684Z,33.64
2022-08-26T14:24:28.941Z,33.95
2022-08-26T14:26:55.964Z,33.95
2022-08-26T14:29:22.822Z,35.37
2022-08-26T14:31:49.709Z,37.20
2022-08-26T14:34:16.724Z,39.90
2022-08-26T14:36:43.805Z,42.14
2022-08-26T14:39:14.231Z,43.79
2022-08-26T14:41:55.840Z,42.77
2022-08-26T14:44:28.186Z,44.32
2022-08-26T14:46:55.356Z,45.77
2022-08-26T14:49:24.405Z,46.07
2022-08-26T14:51:51.292Z,44.96
2022-08-26T14:54:20.265Z,43.58
2022-08-26T14:57:04.944Z,43.02
2022-08-26T14:59:42.200Z,42.88
2022-08-26T15:02:13.920Z,43.27
2022-08-26T15:04:59.088Z,44.05
2022-08-26T15:07:25.919Z,44.15
2022-08-26T15:09:53.092Z,44.02
2022-08-26T15:12:19.968Z,44.82
2022-08-26T15:14:46.838Z,43.20
2022-08-26T15:17:13.680Z,43.44
2022-08-26T15:19:40.507Z,42.96
2022-08-26T15:22:07.366Z,43.37
2022-08-26T15:24:41.526Z,43.98
2022-08-26T15:27:09.012Z,43.13
2022-08-26T15:29:36.615Z,43.68
2022-08-26T15:32:04.467Z,43.72
2022-08-26T15:34:31.996Z,42.59
2022-08-26T15:36:58.820Z,41.48
2022-08-26T15:39:25.853Z,39.55
2022-08-26T15:41:52.699Z,37.73
2022-08-26T15:44:19.690Z,36.20
2022-08-26T15:46:49.582Z,34.78
2022-08-26T15:49:18.468Z,33.71
2022-08-26T15:51:46.959Z,33.71
2022-08-26T15:54:16.595Z,33.47
2022-08-26T15:56:44.230Z,32.98
2022-08-26T15:59:11.756Z,32.96
2022-08-26T16:01:39.685Z,32.68
2022-08-26T16:04:07.506Z,32.57
2022-08-26T16:06:37.921Z,32.51
2022-08-26T16:09:06.368Z,32.00
2022-08-26T16:11:35.862Z,31.17
2022-08-26T16:14:04.554Z,31.53
2022-08-26T16:16:32.168Z,31.49
2022-08-26T16:19:00.613Z,31.41
2022-08-26T16:21:32.208Z,31.62
2022-08-26T16:23:59.744Z,31.65
2022-08-26T16:26:32.457Z,31.62
2022-08-26T16:29:04.422Z,31.91
2022-08-26T16:31:31.340Z,31.94
2022-08-26T16:33:58.318Z,31.99
2022-08-26T16:36:25.187Z,32.17
2022-08-26T16:38:56.234Z,32.30
2022-08-26T16:41:25.769Z,31.75
2022-08-26T16:43:53.254Z,31.66
2022-08-26T16:46:22.137Z,31.52
2022-08-26T16:48:49.462Z,31.08
2022-08-26T16:51:19.054Z,30.90
2022-08-26T16:53:46.265Z,30.61
2022-08-26T16:56:19.962Z,30.34
2022-08-26T16:58:48.233Z,30.38
2022-08-26T17:01:16.605Z,30.42
2022-08-26T17:03:43.657Z,30.22
2022-08-26T17:06:10.626Z,30.16
2022-08-26T17:08:39.217Z,30.01
2022-08-26T17:11:06.960Z,29.86
2022-08-26T17:13:36.102Z,29.72
2022-08-26T17:16:05.806Z,29.67
2022-08-26T17:18:33.815Z,29.67
2022-08-26T17:21:08.441Z,29.57
2022-08-26T17:23:38.237Z,29.48
2022-08-26T17:26:05.471Z,29.29
2022-08-26T17:28:32.679Z,29.20
2022-08-26T17:30:59.849Z,29.04
2022-08-26T17:33:27.223Z,28.96
2022-08-26T17:35:55.713Z,28.83
2022-08-26T17:38:23.625Z,28.75
2022-08-26T17:40:51.375Z,28.61
2022-08-26T17:43:19.046Z,28.27
2022-08-26T17:45:46.136Z,28.23
2022-08-26T17:48:13.035Z,28.25
2022-08-26T17:50:42.342Z,28.01
2022-08-26T17:53:17.800Z,27.88
2022-08-26T17:55:50.276Z,27.73
2022-08-26T17:58:22.717Z,27.66
2022-08-26T18:00:52.244Z,27.55
2022-08-26T18:03:19.230Z,27.37
2022-08-26T18:05:52.013Z,27.26
2022-08-26T18:08:20.216Z,27.21
2022-08-26T18:10:47.645Z,27.03
2022-08-26T18:13:15.352Z,26.93
2022-08-26T18:15:44.085Z,26.95
2022-08-26T18:18:12.935Z,26.61
2022-08-26T18:20:42.231Z,26.54
2022-08-26T18:23:09.745Z,26.45
2022-08-26T18:25:41.501Z,26.39
2022-08-26T18:28:09.217Z,26.36
2022-08-26T18:30:36.300Z,26.31
2022-08-26T18:33:03.459Z,26.26
2022-08-26T18:35:30.641Z,26.26
2022-08-26T18:38:01.409Z,26.09
2022-08-26T18:40:44.020Z,25.77
2022-08-26T18:43:11.621Z,25.89
2022-08-26T18:45:38.764Z,25.95
2022-08-26T18:48:06.117Z,25.94
2022-08-26T18:50:33.348Z,25.96
2022-08-26T18:53:02.430Z,25.92
2022-08-26T18:55:29.309Z,25.92
2022-08-26T18:57:56.181Z,25.96
2022-08-26T19:00:23.722Z,25.95
2022-08-26T19:02:51.988Z,25.95
2022-08-26T19:05:22.784Z,25.99
2022-08-26T19:07:49.611Z,25.99
2022-08-26T19:10:16.591Z,25.99
2022-08-26T19:12:43.891Z,25.93
2022-08-26T19:15:11.457Z,25.83
2022-08-26T19:17:38.405Z,25.66
2022-08-26T19:20:06.498Z,25.67
2022-08-26T19:22:33.481Z,25.67
2022-08-26T19:25:01.243Z,25.65
2022-08-26T19:27:28.224Z,25.59
2022-08-26T19:29:56.359Z,25.56
2022-08-26T19:32:24.459Z,25.59
2022-08-26T19:34:54.674Z,25.59
2022-08-26T19:37:21.978Z,25.57
2022-08-26T19:39:49.060Z,25.52
2022-08-26T19:42:16.550Z,25.40
2022-08-26T19:45:02.056Z,25.42
2022-08-26T19:47:28.933Z,25.53
2022-08-26T19:49:56.347Z,25.44
2022-08-26T19:52:24.259Z,25.35
2022-08-26T19:54:57.541Z,25.29
2022-08-26T19:57:24.402Z,25.25
2022-08-26T19:59:51.225Z,25.26
2022-08-26T20:02:18.154Z,25.31
2022-08-26T20:04:45.760Z,25.44
2022-08-26T20:07:18.077Z,25.55
2022-08-26T20:09:47.004Z,25.37
2022-08-26T20:12:15.356Z,25.29
2022-08-26T20:14:42.289Z,25.22
2022-08-26T20:17:09.253Z,25.24
2022-08-26T20:19:54.993Z,25.23
2022-08-26T20:22:22.599Z,25.34
2022-08-26T20:24:49.769Z,25.21
2022-08-26T20:27:16.610Z,25.16
2022-08-26T20:29:43.569Z,25.23
2022-08-26T20:32:12.029Z,25.29
2022-08-26T20:34:39.979Z,25.26
2022-08-26T20:37:08.379Z,25.16
2022-08-26T20:39:35.723Z,25.07
2022-08-26T20:42:03.185Z,25.14
2022-08-26T20:44:30.161Z,25.12
2022-08-26T20:46:59.048Z,25.14
2022-08-26T20:49:27.996Z,25.18
2022-08-26T20:51:55.372Z,25.20
2022-08-26T20:54:28.263Z,25.20
2022-08-26T20:56:57.516Z,25.23
2022-08-26T20:59:25.485Z,25.18
2022-08-26T21:01:53.027Z,25.06
2022-08-26T21:04:24.065Z,25.01
2022-08-26T21:06:52.609Z,25.06
2022-08-26T21:09:21.915Z,25.07
2022-08-26T21:11:49.945Z,24.97
2022-08-26T21:14:17.524Z,25.01
2022-08-26T21:16:46.401Z,25.06
2022-08-26T21:19:17.886Z,24.97
2022-08-26T21:21:46.998Z,24.92
2022-08-26T21:24:14.545Z,24.90
2022-08-26T21:26:42.185Z,24.76
2022-08-26T21:29:09.819Z,24.61
2022-08-26T21:31:43.515Z,24.57
2022-08-26T21:34:13.217Z,24.43
2022-08-26T21:36:40.197Z,24.34
2022-08-26T21:39:11.434Z,24.37
2022-08-26T21:41:40.696Z,24.31
2022-08-26T21:44:08.426Z,24.23
2022-08-26T21:46:37.194Z,24.22
2022-08-26T21:49:09.921Z,24.28
2022-08-26T21:51:41.272Z,24.32
2022-08-26T21:54:11.264Z,24.33
2022-08-26T21:56:44.207Z,24.32
2022-08-26T21:59:11.794Z,24.28
2022-08-26T22:01:38.857Z,24.17
2022-08-26T22:04:08.978Z,24.19
2022-08-26T22:06:47.681Z,24.11
2022-08-26T22:09:19.692Z,24.16
2022-08-26T22:11:47.344Z,24.19
2022-08-26T22:14:16.494Z,24.22
2022-08-26T22:16:50.178Z,24.09
2022-08-26T22:19:19.912Z,23.78
2022-08-26T22:21:51.164Z,23.86
2022-08-26T22:24:19.582Z,23.83
2022-08-26T22:26:48.015Z,23.83
2022-08-26T22:29:15.997Z,23.83
2022-08-26T22:31:43.165Z,23.68
2022-08-26T22:34:15.613Z,23.40
2022-08-26T22:36:46.729Z,23.41
2022-08-26T22:39:17.342Z,23.45
2022-08-26T22:41:48.504Z,23.60
2022-08-26T22:44:17.914Z,23.30
2022-08-26T22:46:47.362Z,22.96
2022-08-26T22:49:17.989Z,22.92
2022-08-26T22:51:45.774Z,22.92
2022-08-26T22:54:14.090Z,22.72
2022-08-26T22:56:41.319Z,22.94
2022-08-26T22:59:08.967Z,22.79
2022-08-26T23:01:39.123Z,22.73
2022-08-26T23:04:07.502Z,22.86
2022-08-26T23:06:37.816Z,22.77
2022-08-26T23:09:06.583Z,22.75
2022-08-26T23:11:34.551Z,22.59
2022-08-26T23:14:02.306Z,22.66
2022-08-26T23:16:41.445Z,22.31
2022-08-26T23:19:13.586Z,22.14
2022-08-26T23:21:40.967Z,22.30
2022-08-26T23:24:09.052Z,22.23
2022-08-26T23:26:36.788Z,22.43
2022-08-26T23:29:05.351Z,22.22
2022-08-26T23:31:32.735Z,21.96
2022-08-26T23:34:19.131Z,22.04
2022-08-26T23:36:46.353Z,21.98
2022-08-26T23:39:14.626Z,21.88
2022-08-26T23:41:42.152Z,21.88
2022-08-26T23:44:08.982Z,21.79
2022-08-26T23:46:36.522Z,21.76
2022-08-26T23:49:06.097Z,21.89
2022-08-26T23:51:51.356Z,21.94
2022-08-26T23:54:19.486Z,21.93
2022-08-26T23:56:46.791Z,22.03
2022-08-26T23:59:13.689Z,22.06
